Seiyoh101 — JD3331 — position and weather

sailwx.info

Track history (hours):
 
Tides and Currents Weather Stations Pressure Air Temp Water Temp Dewpoint Dewpoint Depression Visibility Wind Speed Wind Dir Waves Ship Positions

Seiyoh101

Last reported at 2018-Jan-18 21:44 UTC. Time now 2018-Jan-19 01:27 UTC.
Position N 33°18' E 131°40'.

Length 60 m.

Type: Tanker. MMSI: 431003382.

Date/timePositionNaut miles runAvg speedWind from/ knotsBaromVisibWave heightAir tempDewpointWater temp
2018-Jan-18 21:44N 33°18' E 131°40'3 8.7
2018-Jan-18 21:26N 33°19' E 131°43'6 8.7
2018-Jan-18 20:47N 33°22' E 131°49'2 8.8
2018-Jan-18 20:30N 33°24' E 131°51'710.5
2018-Jan-18 19:52N 33°28' E 131°57'2211.5
2018-Jan-18 17:58N 33°41' E 132°18'2012.3
2018-Jan-18 16:21N 33°54' E 132°37'412.2
2018-Jan-18 16:00N 33°56' E 132°41'  
2018-Jan-12 09:05N 34°45' E 134°36'212.1
2018-Jan-12 08:56N 34°44' E 134°34'  
2018-Jan-10 03:11N 34°12' E 132°14'0 0.0
2018-Jan-10 02:54N 34°12' E 132°14'0 0.0
2018-Jan-10 02:25N 34°12' E 132°14'0 0.0
2018-Jan-10 01:44N 34°12' E 132°14'0 0.5
2018-Jan-10 01:30N 34°12' E 132°14'4 8.8
2018-Jan-10 01:00N 34°09' E 132°19'610.6
2018-Jan-10 00:29N 34°06' E 132°24'710.5
2018-Jan-09 23:51N 34°02' E 132°31'410.3
2018-Jan-09 23:30N 34°03' E 132°35'105 9.5
2018-Jan-09 12:27N 34°30' E 134°38'5 9.7
2018-Jan-09 11:53N 34°32' E 134°44'4 9.0
2018-Jan-09 11:29N 34°34' E 134°48'4 8.1
2018-Jan-09 10:59N 34°35' E 134°53'4 7.7
2018-Jan-09 10:30N 34°37' E 134°57'4 7.4
2018-Jan-09 10:00N 34°38' E 135°01'4 7.5
2018-Jan-09 09:30N 34°36' E 135°05'5 9.4
2018-Jan-09 09:00N 34°35' E 135°11'510.1
2018-Jan-09 08:30N 34°34' E 135°17'5 9.7
2018-Jan-09 08:00N 34°33' E 135°22'3 4.9
2018-Jan-09 07:28N 34°32' E 135°25'0 0.0
2018-Jan-09 06:58N 34°32' E 135°25'0 0.0
2018-Jan-09 06:28N 34°32' E 135°25'0 0.0
2018-Jan-09 05:58N 34°32' E 135°25'0 0.0
2018-Jan-09 05:28N 34°32' E 135°25'0 0.0
2018-Jan-09 04:58N 34°32' E 135°25'0 0.0
2018-Jan-09 04:25N 34°32' E 135°25'0 0.0
2018-Jan-09 03:58N 34°32' E 135°25'0 0.0
2018-Jan-09 03:28N 34°32' E 135°25'0 0.0
2018-Jan-09 02:58N 34°32' E 135°25'0 0.0
2018-Jan-09 02:28N 34°32' E 135°25'0 0.0
2018-Jan-09 01:58N 34°32' E 135°25'0 0.0
2018-Jan-09 01:28N 34°32' E 135°25'0 0.0
2018-Jan-09 00:58N 34°32' E 135°25'0 0.0
2018-Jan-09 00:28N 34°32' E 135°25'0 0.0
2018-Jan-08 23:58N 34°32' E 135°25'0 0.0
2018-Jan-08 23:28N 34°32' E 135°25'0 0.0
2018-Jan-08 22:58N 34°32' E 135°25'0 0.4
2018-Jan-08 22:30N 34°33' E 135°25'2 3.5
2018-Jan-08 21:58N 34°31' E 135°24'  
Track history (hours):
 
Tides and Currents Weather Stations Pressure Air Temp Water Temp Dewpoint Dewpoint Depression Visibility Wind Speed Wind Dir Waves Ship Positions

Seiyoh101

Last reported at 2018-Jan-18 21:44 UTC. Time now 2018-Jan-19 01:27 UTC.
Position N 33°18' E 131°40'.

Length 60 m.

Type: Tanker. MMSI: 431003382.

Date/timePositionNaut miles runAvg speedWind from/ knotsBaromVisibWave heightAir tempDewpointWater temp
2018-Jan-18 21:44N 33°18' E 131°40'3 8.7
2018-Jan-18 21:26N 33°19' E 131°43'6 8.7
2018-Jan-18 20:47N 33°22' E 131°49'2 8.8
2018-Jan-18 20:30N 33°24' E 131°51'710.5
2018-Jan-18 19:52N 33°28' E 131°57'2211.5
2018-Jan-18 17:58N 33°41' E 132°18'2012.3
2018-Jan-18 16:21N 33°54' E 132°37'412.2
2018-Jan-18 16:00N 33°56' E 132°41'  
2018-Jan-12 09:05N 34°45' E 134°36'212.1
2018-Jan-12 08:56N 34°44' E 134°34'  
2018-Jan-10 03:11N 34°12' E 132°14'0 0.0
2018-Jan-10 02:54N 34°12' E 132°14'0 0.0
2018-Jan-10 02:25N 34°12' E 132°14'0 0.0
2018-Jan-10 01:44N 34°12' E 132°14'0 0.5
2018-Jan-10 01:30N 34°12' E 132°14'4 8.8
2018-Jan-10 01:00N 34°09' E 132°19'610.6
2018-Jan-10 00:29N 34°06' E 132°24'710.5
2018-Jan-09 23:51N 34°02' E 132°31'410.3
2018-Jan-09 23:30N 34°03' E 132°35'105 9.5
2018-Jan-09 12:27N 34°30' E 134°38'5 9.7
2018-Jan-09 11:53N 34°32' E 134°44'4 9.0
2018-Jan-09 11:29N 34°34' E 134°48'4 8.1
2018-Jan-09 10:59N 34°35' E 134°53'4 7.7
2018-Jan-09 10:30N 34°37' E 134°57'4 7.4
2018-Jan-09 10:00N 34°38' E 135°01'4 7.5
2018-Jan-09 09:30N 34°36' E 135°05'5 9.4
2018-Jan-09 09:00N 34°35' E 135°11'510.1
2018-Jan-09 08:30N 34°34' E 135°17'5 9.7
2018-Jan-09 08:00N 34°33' E 135°22'3 4.9
2018-Jan-09 07:28N 34°32' E 135°25'0 0.0
2018-Jan-09 06:58N 34°32' E 135°25'0 0.0
2018-Jan-09 06:28N 34°32' E 135°25'0 0.0
2018-Jan-09 05:58N 34°32' E 135°25'0 0.0
2018-Jan-09 05:28N 34°32' E 135°25'0 0.0
2018-Jan-09 04:58N 34°32' E 135°25'0 0.0
2018-Jan-09 04:25N 34°32' E 135°25'0 0.0
2018-Jan-09 03:58N 34°32' E 135°25'0 0.0
2018-Jan-09 03:28N 34°32' E 135°25'0 0.0
2018-Jan-09 02:58N 34°32' E 135°25'0 0.0
2018-Jan-09 02:28N 34°32' E 135°25'0 0.0
2018-Jan-09 01:58N 34°32' E 135°25'0 0.0
2018-Jan-09 01:28N 34°32' E 135°25'0 0.0
2018-Jan-09 00:58N 34°32' E 135°25'0 0.0
2018-Jan-09 00:28N 34°32' E 135°25'0 0.0
2018-Jan-08 23:58N 34°32' E 135°25'0 0.0
2018-Jan-08 23:28N 34°32' E 135°25'0 0.0
2018-Jan-08 22:58N 34°32' E 135°25'0 0.4
2018-Jan-08 22:30N 34°33' E 135°25'2 3.5
2018-Jan-08 21:58N 34°31' E 135°24'  

Dump ship's entire track history